Time;durP1;ratioP1;P1;durP2;ratioP2;P2;SDS_P1;SDS_P2;PMS_P1;PMS_P2;Temp;Humidity;BMP_temperature;BMP_pressure;BME280_temperature;BME280_humidity;BME280_pressure;Samples;Min_cycle;Max_cycle;Signal;HPM_P1;HPM_P2
2021/01/01 00:01:30;;;;;;;35.97;24.37;;;3.20;99.90;;;;;;5072270;28;20454;-75
2021/01/01 00:03:58;;;;;;;25.80;22.70;;;3.30;99.90;;;;;;5071331;28;20436;-75
2021/01/01 00:06:24;;;;;;;28.27;19.70;;;3.30;99.90;;;;;;5072907;28;20867;-74
2021/01/01 00:08:51;;;;;;;26.00;18.17;;;3.40;99.90;;;;;;5071557;28;20466;-74
2021/01/01 00:11:19;;;;;;;22.53;18.60;;;3.50;99.90;;;;;;5071574;28;20837;-74
2021/01/01 00:13:45;;;;;;;18.90;16.30;;;3.60;99.90;;;;;;5073360;28;20465;-74
2021/01/01 00:16:12;;;;;;;18.97;13.93;;;3.60;99.90;;;;;;5073893;28;20483;-74
2021/01/01 00:18:40;;;;;;;19.90;14.20;;;3.60;99.90;;;;;;5075246;28;20451;-75
2021/01/01 00:21:08;;;;;;;15.10;12.80;;;3.60;99.90;;;;;;5075440;28;20851;-74
2021/01/01 00:23:35;;;;;;;19.20;14.87;;;3.70;99.90;;;;;;5075546;28;20440;-74
2021/01/01 00:26:01;;;;;;;19.27;15.53;;;3.80;99.90;;;;;;5070203;28;20455;-74
2021/01/01 00:28:29;;;;;;;17.57;13.40;;;3.80;99.90;;;;;;5070284;28;20572;-74
2021/01/01 00:30:56;;;;;;;16.57;13.17;;;3.90;99.90;;;;;;5070582;28;20439;-73
2021/01/01 00:33:24;;;;;;;19.83;15.40;;;3.90;99.90;;;;;;5070199;28;20541;-74
2021/01/01 00:35:50;;;;;;;19.53;13.50;;;4.00;99.90;;;;;;5068239;28;20487;-73
2021/01/01 00:38:18;;;;;;;15.83;11.97;;;4.00;99.90;;;;;;5068364;28;20714;-74
2021/01/01 00:40:44;;;;;;;16.70;13.03;;;4.10;99.90;;;;;;5068102;28;20435;-74
2021/01/01 00:43:11;;;;;;;19.97;15.17;;;4.10;99.90;;;;;;5068601;28;20440;-74
2021/01/01 00:45:37;;;;;;;19.80;15.50;;;4.10;99.90;;;;;;5069419;28;20804;-74
2021/01/01 00:48:04;;;;;;;25.70;16.53;;;4.00;99.90;;;;;;5071929;28;20466;-74
2021/01/01 00:50:31;;;;;;;22.67;16.10;;;4.00;99.90;;;;;;5072236;28;20442;-74
2021/01/01 00:52:57;;;;;;;24.60;18.10;;;3.90;99.90;;;;;;5071752;28;20851;-74
2021/01/01 00:55:25;;;;;;;22.50;16.23;;;3.80;99.90;;;;;;5075416;28;20475;-74
2021/01/01 00:57:51;;;;;;;22.10;18.10;;;3.70;99.90;;;;;;5071383;28;20462;-74
2021/01/01 01:00:19;;;;;;;21.57;16.83;;;3.60;99.90;;;;;;5072236;28;20466;-74
2021/01/01 01:02:45;;;;;;;19.70;17.60;;;3.60;99.90;;;;;;5071752;28;20932;-74
2021/01/01 01:05:13;;;;;;;27.50;19.93;;;3.60;99.90;;;;;;5067220;28;20448;-73
2021/01/01 01:07:39;;;;;;;26.80;19.97;;;3.60;99.90;;;;;;5071459;28;20459;-74
2021/01/01 01:10:07;;;;;;;27.10;19.60;;;3.70;99.90;;;;;;5063651;28;20633;-74
2021/01/01 01:12:34;;;;;;;23.17;17.77;;;3.80;99.90;;;;;;5063772;28;20435;-74
2021/01/01 01:15:01;;;;;;;20.53;17.00;;;3.80;99.90;;;;;;5071143;28;20483;-74
2021/01/01 01:17:27;;;;;;;40.77;25.57;;;3.80;99.90;;;;;;5071139;28;20810;-74
2021/01/01 01:19:54;;;;;;;29.27;20.40;;;3.80;99.90;;;;;;5071923;28;20892;-74
2021/01/01 01:22:20;;;;;;;23.43;16.27;;;3.80;99.90;;;;;;5071455;28;20492;-74
2021/01/01 01:24:47;;;;;;;22.60;17.90;;;3.70;99.90;;;;;;5071721;28;20447;-74
2021/01/01 01:27:14;;;;;;;23.13;17.03;;;3.70;99.90;;;;;;5070959;28;20486;-74
2021/01/01 01:29:41;;;;;;;22.00;18.10;;;3.70;99.90;;;;;;5051840;28;20582;-74
2021/01/01 01:32:07;;;;;;;24.70;17.40;;;3.80;99.90;;;;;;5051721;28;20463;-74
2021/01/01 01:34:34;;;;;;;22.37;17.20;;;3.80;99.90;;;;;;5051090;28;20476;-74
2021/01/01 01:37:00;;;;;;;20.93;16.93;;;3.80;99.90;;;;;;5050307;28;20551;-74
2021/01/01 01:39:27;;;;;;;23.00;18.00;;;3.80;99.90;;;;;;5049769;28;20849;-74
2021/01/01 01:41:53;;;;;;;21.43;16.43;;;3.80;99.90;;;;;;5050521;28;20919;-74
2021/01/01 01:44:20;;;;;;;23.47;16.90;;;3.80;99.90;;;;;;5051689;28;20441;-73
2021/01/01 01:46:48;;;;;;;19.70;15.27;;;3.80;99.90;;;;;;5050926;28;20993;-74
2021/01/01 01:49:16;;;;;;;20.87;15.27;;;3.80;99.90;;;;;;5051137;28;20436;-73
2021/01/01 01:51:46;;;;;;;18.10;15.07;;;3.80;99.90;;;;;;5051070;28;20440;-74
2021/01/01 01:54:13;;;;;;;19.00;15.73;;;3.80;99.90;;;;;;5058674;28;20440;-74
2021/01/01 01:56:42;;;;;;;20.77;15.63;;;3.80;99.90;;;;;;5050000;28;20809;-74
2021/01/01 01:59:09;;;;;;;18.83;15.57;;;3.80;99.90;;;;;;5053232;28;20471;-73
2021/01/01 02:01:35;;;;;;;17.80;13.47;;;3.80;99.90;;;;;;5050919;28;20791;-74
2021/01/01 02:04:03;;;;;;;22.30;16.10;;;3.80;99.90;;;;;;5050606;28;20931;-76
2021/01/01 02:06:29;;;;;;;17.93;14.50;;;3.90;99.90;;;;;;5053873;28;20466;-74
2021/01/01 02:08:56;;;;;;;17.80;14.60;;;3.90;99.90;;;;;;5067302;28;20440;-74
2021/01/01 02:11:23;;;;;;;19.77;14.27;;;3.90;99.90;;;;;;5066712;28;20435;-74
2021/01/01 02:13:53;;;;;;;19.80;15.10;;;3.90;99.90;;;;;;5070385;28;20819;-74
2021/01/01 02:16:21;;;;;;;18.73;15.57;;;3.80;99.90;;;;;;5070185;28;20582;-74
2021/01/01 02:18:48;;;;;;;19.10;16.47;;;3.90;99.90;;;;;;5070038;28;20534;-74
2021/01/01 02:21:16;;;;;;;19.57;16.47;;;3.90;99.90;;;;;;5063493;28;20440;-74
2021/01/01 02:23:45;;;;;;;23.63;17.20;;;3.90;99.90;;;;;;5067938;28;21037;-73
2021/01/01 02:26:12;;;;;;;19.03;15.93;;;4.00;99.90;;;;;;5049779;28;20446;-74
2021/01/01 02:28:38;;;;;;;19.47;16.77;;;3.90;99.90;;;;;;5060017;28;20443;-74
2021/01/01 02:31:06;;;;;;;22.27;18.87;;;4.00;99.90;;;;;;5063565;28;20457;-74
2021/01/01 02:33:33;;;;;;;19.70;16.27;;;4.00;99.90;;;;;;5057441;28;20844;-74
2021/01/01 02:35:59;;;;;;;18.20;15.23;;;4.00;99.90;;;;;;5049135;28;20541;-73
2021/01/01 02:38:26;;;;;;;19.20;14.90;;;4.00;99.90;;;;;;5058596;28;20677;-74
2021/01/01 02:40:53;;;;;;;16.03;14.33;;;4.00;99.90;;;;;;5069606;28;20447;-74
2021/01/01 02:43:20;;;;;;;21.53;15.00;;;4.10;99.90;;;;;;5069385;28;20439;-74
2021/01/01 02:45:47;;;;;;;18.10;13.43;;;4.10;99.90;;;;;;5069331;28;20883;-73
2021/01/01 02:48:15;;;;;;;19.13;14.93;;;4.10;99.90;;;;;;5062470;28;20459;-73
2021/01/01 02:50:42;;;;;;;18.17;13.87;;;4.00;99.90;;;;;;5069386;28;20497;-74
2021/01/01 02:53:09;;;;;;;18.43;14.10;;;4.00;99.90;;;;;;5069474;28;20428;-74
2021/01/01 02:55:36;;;;;;;18.73;14.47;;;4.00;99.90;;;;;;5060008;28;20490;-73
2021/01/01 02:58:04;;;;;;;15.37;12.73;;;4.00;99.90;;;;;;5060315;28;20471;-73
2021/01/01 03:00:35;;;;;;;18.03;14.30;;;4.00;99.90;;;;;;5064544;28;20446;-74
2021/01/01 03:03:01;;;;;;;16.93;14.17;;;4.00;99.90;;;;;;5072504;28;20411;-73
2021/01/01 03:05:28;;;;;;;21.40;14.53;;;4.00;99.90;;;;;;5069057;28;20455;-74
2021/01/01 03:07:54;;;;;;;18.07;14.87;;;4.00;99.90;;;;;;5060078;28;20448;-74
2021/01/01 03:10:21;;;;;;;17.83;13.40;;;3.90;99.90;;;;;;5048976;28;20439;-73
2021/01/01 03:12:47;;;;;;;19.27;15.83;;;4.00;99.90;;;;;;5049514;28;20432;-74
2021/01/01 03:15:16;;;;;;;17.27;14.57;;;3.90;99.90;;;;;;5062486;28;20510;-74
2021/01/01 03:17:43;;;;;;;23.40;18.97;;;3.90;99.90;;;;;;5068783;28;20802;-73
2021/01/01 03:20:10;;;;;;;24.03;18.53;;;3.90;99.90;;;;;;5069624;28;20496;-73
2021/01/01 03:22:37;;;;;;;18.53;15.00;;;3.90;99.90;;;;;;5057173;28;20443;-74
2021/01/01 03:25:05;;;;;;;21.80;18.50;;;3.90;99.90;;;;;;5065664;28;20440;-74
2021/01/01 03:27:31;;;;;;;18.20;15.03;;;3.90;99.90;;;;;;5070086;28;20455;-73
2021/01/01 03:29:58;;;;;;;19.87;15.97;;;3.80;99.90;;;;;;5050380;28;20432;-74
2021/01/01 03:32:25;;;;;;;21.73;17.27;;;3.90;99.90;;;;;;5063185;28;20431;-73
2021/01/01 03:34:53;;;;;;;20.40;16.57;;;3.90;99.90;;;;;;5056360;28;20537;-73
2021/01/01 03:37:19;;;;;;;21.47;17.13;;;3.90;99.90;;;;;;5049356;28;20685;-73
2021/01/01 03:39:46;;;;;;;20.93;16.53;;;4.00;99.90;;;;;;5049763;28;20440;-73
2021/01/01 03:42:12;;;;;;;19.27;15.33;;;4.10;99.90;;;;;;5066699;28;20809;-73
2021/01/01 03:44:39;;;;;;;19.80;14.80;;;4.10;99.90;;;;;;5069282;28;20606;-74
2021/01/01 03:47:06;;;;;;;20.47;15.40;;;4.00;99.90;;;;;;5070880;28;20550;-73
2021/01/01 03:49:34;;;;;;;20.00;15.80;;;4.00;99.90;;;;;;5069456;28;20442;-73
2021/01/01 03:52:00;;;;;;;21.20;16.50;;;3.90;99.90;;;;;;5069529;28;20500;-73
2021/01/01 03:54:27;;;;;;;24.00;16.60;;;4.00;99.90;;;;;;5069069;28;20428;-73
2021/01/01 03:56:54;;;;;;;22.43;16.87;;;3.90;99.90;;;;;;5068746;28;20455;-73
2021/01/01 03:59:21;;;;;;;23.40;17.90;;;3.90;99.90;;;;;;5069430;28;20458;-73
2021/01/01 04:01:47;;;;;;;27.73;18.60;;;4.00;99.90;;;;;;5069477;28;20435;-73
2021/01/01 04:04:14;;;;;;;20.93;17.57;;;3.90;99.90;;;;;;5068782;28;20504;-73
2021/01/01 04:06:41;;;;;;;21.97;17.63;;;3.90;99.90;;;;;;5068630;28;20451;-73
2021/01/01 04:09:08;;;;;;;23.67;17.33;;;3.90;99.90;;;;;;5069524;28;20789;-74
2021/01/01 04:11:36;;;;;;;22.93;18.90;;;3.90;99.90;;;;;;5068876;28;20443;-74
2021/01/01 04:14:02;;;;;;;25.33;19.87;;;3.90;99.90;;;;;;5068985;28;20441;-73
2021/01/01 04:16:30;;;;;;;25.57;20.00;;;3.80;99.90;;;;;;5068621;28;20807;-73
2021/01/01 04:18:57;;;;;;;24.33;16.33;;;3.90;99.90;;;;;;5068850;28;20579;-73
2021/01/01 04:21:23;;;;;;;21.20;16.40;;;4.00;99.90;;;;;;5073977;28;20438;-74
2021/01/01 04:23:51;;;;;;;20.93;16.77;;;4.00;99.90;;;;;;5075181;28;20439;-74
2021/01/01 04:26:17;;;;;;;21.57;15.80;;;3.90;99.90;;;;;;5075353;28;20431;-73
2021/01/01 04:28:44;;;;;;;19.70;15.80;;;3.90;99.90;;;;;;5075665;28;20442;-73
2021/01/01 04:31:10;;;;;;;21.57;16.87;;;3.90;99.90;;;;;;5075650;28;20439;-73
2021/01/01 04:33:37;;;;;;;19.50;15.67;;;3.80;99.90;;;;;;5076046;28;20488;-73
2021/01/01 04:36:05;;;;;;;25.93;18.00;;;3.90;99.90;;;;;;5075363;28;20885;-74
2021/01/01 04:38:31;;;;;;;21.10;16.20;;;3.90;99.90;;;;;;5075944;28;20427;-74
2021/01/01 04:40:59;;;;;;;18.20;14.27;;;3.90;99.90;;;;;;5076285;28;20435;-74
2021/01/01 04:43:25;;;;;;;20.30;15.37;;;3.80;99.90;;;;;;5075437;28;20439;-74
2021/01/01 04:45:53;;;;;;;21.60;15.10;;;3.80;99.90;;;;;;5075518;28;20439;-74
2021/01/01 04:48:20;;;;;;;20.53;15.33;;;3.70;99.90;;;;;;5075727;28;20634;-73
2021/01/01 04:50:47;;;;;;;21.20;15.47;;;3.60;99.90;;;;;;5075636;28;20427;-73
2021/01/01 04:53:19;;;;;;;23.50;17.00;;;3.60;99.90;;;;;;5075397;28;20815;-73
2021/01/01 04:55:46;;;;;;;22.50;17.27;;;3.60;99.90;;;;;;5075129;28;20474;-73
2021/01/01 04:58:14;;;;;;;21.73;16.30;;;3.60;99.90;;;;;;5074906;28;20467;-74
2021/01/01 05:00:40;;;;;;;23.80;18.50;;;3.60;99.90;;;;;;5075374;28;20861;-73
2021/01/01 05:03:07;;;;;;;23.97;19.33;;;3.60;99.90;;;;;;5075680;28;20435;-74
2021/01/01 05:05:33;;;;;;;21.00;17.57;;;3.70;99.90;;;;;;5075386;28;20857;-73
2021/01/01 05:08:00;;;;;;;26.23;18.27;;;3.70;99.90;;;;;;5075249;28;20776;-73
2021/01/01 05:10:26;;;;;;;21.50;16.83;;;3.80;99.90;;;;;;5075689;28;20810;-74
2021/01/01 05:12:55;;;;;;;29.43;20.20;;;3.80;99.90;;;;;;5075519;28;20446;-73
2021/01/01 05:15:37;;;;;;;30.07;21.33;;;3.80;99.90;;;;;;5075647;28;20873;-73
2021/01/01 05:18:19;;;;;;;31.03;22.10;;;3.80;99.90;;;;;;5072508;28;20482;-74
2021/01/01 05:20:47;;;;;;;25.53;18.50;;;3.80;99.90;;;;;;5075458;28;20431;-73
2021/01/01 05:23:24;;;;;;;31.70;22.27;;;3.90;99.90;;;;;;5075174;28;20481;-74
2021/01/01 05:26:09;;;;;;;26.87;20.00;;;3.90;99.90;;;;;;5074973;28;20460;-73
2021/01/01 05:28:57;;;;;;;28.77;21.37;;;3.80;99.90;;;;;;5074955;28;20438;-73
2021/01/01 05:31:25;;;;;;;30.67;22.20;;;3.80;99.90;;;;;;5073926;28;20842;-73
2021/01/01 05:33:54;;;;;;;30.77;21.77;;;3.80;99.90;;;;;;5071443;28;20478;-73
2021/01/01 05:36:36;;;;;;;28.80;23.17;;;3.90;99.90;;;;;;5071481;28;20475;-73
2021/01/01 05:39:05;;;;;;;34.27;22.23;;;3.90;99.90;;;;;;5072169;28;20518;-73
2021/01/01 05:41:34;;;;;;;37.63;25.10;;;3.80;99.90;;;;;;5071752;28;20926;-73
2021/01/01 05:44:13;;;;;;;27.97;21.60;;;3.80;99.90;;;;;;5071780;28;20859;-73
2021/01/01 05:47:01;;;;;;;25.20;18.80;;;3.80;99.90;;;;;;5072393;28;20516;-73
2021/01/01 05:49:30;;;;;;;27.10;21.63;;;3.80;99.90;;;;;;5072908;28;20954;-74
2021/01/01 05:52:08;;;;;;;27.20;20.47;;;3.70;99.90;;;;;;5072214;28;20424;-73
2021/01/01 05:54:35;;;;;;;29.53;21.30;;;3.70;99.90;;;;;;5074305;28;20469;-73
2021/01/01 05:57:04;;;;;;;27.60;21.00;;;3.70;99.90;;;;;;5075851;28;20462;-73
2021/01/01 05:59:35;;;;;;;29.73;22.30;;;3.70;99.90;;;;;;5075947;28;20514;-73
2021/01/01 06:02:04;;;;;;;36.10;23.90;;;3.70;99.90;;;;;;5077112;28;20416;-72
2021/01/01 06:04:31;;;;;;;32.97;23.27;;;3.70;99.90;;;;;;5076718;28;20866;-73
2021/01/01 06:07:01;;;;;;;20.87;15.43;;;3.70;99.90;;;;;;5071475;28;20456;-75
2021/01/01 06:09:29;;;;;;;17.43;13.17;;;3.60;99.90;;;;;;5071711;28;20517;-73
2021/01/01 06:12:01;;;;;;;16.80;12.10;;;3.50;99.90;;;;;;5071909;28;20435;-72
2021/01/01 06:14:32;;;;;;;15.20;12.03;;;3.50;99.90;;;;;;5071760;28;20435;-73
2021/01/01 06:17:19;;;;;;;17.60;12.00;;;3.50;99.90;;;;;;5071871;28;20459;-73
2021/01/01 06:19:49;;;;;;;17.90;11.77;;;3.50;99.90;;;;;;5072317;28;20427;-73
2021/01/01 06:22:17;;;;;;;13.93;9.90;;;3.50;99.90;;;;;;5072298;28;20431;-73
2021/01/01 06:24:46;;;;;;;13.10;10.30;;;3.40;99.90;;;;;;5072311;28;20850;-74
2021/01/01 06:27:13;;;;;;;11.90;9.03;;;3.30;99.90;;;;;;5071756;28;20459;-73
2021/01/01 06:29:45;;;;;;;14.20;10.10;;;3.30;99.90;;;;;;5071393;28;20969;-73
2021/01/01 06:32:13;;;;;;;11.80;8.40;;;3.20;99.90;;;;;;5071297;28;20781;-73
2021/01/01 06:34:40;;;;;;;11.20;8.70;;;3.20;99.90;;;;;;5071257;28;20432;-73
2021/01/01 06:37:07;;;;;;;12.20;9.47;;;3.20;99.90;;;;;;5071043;28;20458;-73
2021/01/01 06:39:42;;;;;;;10.00;7.33;;;3.20;99.90;;;;;;5071717;28;20936;-74
2021/01/01 06:42:10;;;;;;;11.40;8.20;;;3.10;99.90;;;;;;5072066;28;20430;-75
2021/01/01 06:44:39;;;;;;;9.73;7.67;;;3.10;99.90;;;;;;5071628;28;20447;-73
2021/01/01 06:47:08;;;;;;;11.17;8.57;;;3.10;99.90;;;;;;5071168;28;20463;-74
2021/01/01 06:49:37;;;;;;;11.87;8.47;;;3.10;99.90;;;;;;5071314;28;20436;-73
2021/01/01 06:52:15;;;;;;;10.77;8.07;;;3.00;99.90;;;;;;5071883;28;20435;-74
2021/01/01 06:54:53;;;;;;;8.97;6.87;;;3.00;99.90;;;;;;5071563;28;20484;-73
2021/01/01 06:57:26;;;;;;;9.23;6.50;;;3.00;99.90;;;;;;5070984;28;20447;-73
2021/01/01 06:59:53;;;;;;;7.80;5.80;;;3.00;99.90;;;;;;5071028;28;20438;-74
2021/01/01 07:02:21;;;;;;;8.80;6.77;;;3.00;99.90;;;;;;5070674;28;20850;-74
2021/01/01 07:04:49;;;;;;;10.50;7.20;;;3.00;99.90;;;;;;5071160;28;20446;-74
2021/01/01 07:07:44;;;;;;;8.17;7.27;;;2.90;99.90;;;;;;5070058;28;20447;-74
2021/01/01 07:10:15;;;;;;;9.73;6.53;;;2.90;99.90;;;;;;5070727;28;20996;-75
2021/01/01 07:12:42;;;;;;;8.57;6.07;;;2.90;99.90;;;;;;5070639;28;20431;-73
2021/01/01 07:15:35;;;;;;;8.50;7.20;;;2.90;99.90;;;;;;5070078;28;20491;-73
2021/01/01 07:18:02;;;;;;;10.10;6.83;;;3.00;99.90;;;;;;5011602;28;20478;-74
2021/01/01 07:20:28;;;;;;;9.57;6.90;;;3.00;99.90;;;;;;5070677;28;20999;-73
2021/01/01 07:22:59;;;;;;;9.70;6.17;;;3.00;99.90;;;;;;5070467;28;20435;-74
2021/01/01 07:25:34;;;;;;;8.03;6.43;;;3.00;99.90;;;;;;5070374;28;20931;-73
2021/01/01 07:28:03;;;;;;;7.63;6.20;;;3.00;99.90;;;;;;5069943;28;20451;-73
2021/01/01 07:30:34;;;;;;;7.40;5.57;;;3.10;99.90;;;;;;5070755;28;20427;-73
2021/01/01 07:33:02;;;;;;;9.00;5.03;;;3.10;99.90;;;;;;5069764;28;20435;-73
2021/01/01 07:35:30;;;;;;;6.43;5.30;;;3.00;99.90;;;;;;5069902;28;20894;-73
2021/01/01 07:37:58;;;;;;;7.57;5.57;;;3.00;99.90;;;;;;5069725;28;20455;-73
2021/01/01 07:40:26;;;;;;;7.40;5.20;;;3.00;99.90;;;;;;5070050;28;20773;-73
2021/01/01 07:42:53;;;;;;;8.50;5.70;;;3.10;99.90;;;;;;5069902;28;20443;-74
2021/01/01 07:45:20;;;;;;;6.40;4.73;;;3.00;99.90;;;;;;5070028;28;20738;-73
2021/01/01 07:47:48;;;;;;;7.23;6.10;;;3.00;99.90;;;;;;5069573;28;20448;-73
2021/01/01 07:50:16;;;;;;;6.60;4.87;;;3.00;99.90;;;;;;5069988;28;20809;-73
2021/01/01 07:52:43;;;;;;;6.00;4.37;;;3.00;99.90;;;;;;5069862;28;20504;-74
2021/01/01 07:55:12;;;;;;;4.53;3.73;;;3.10;99.90;;;;;;5069101;28;20467;-73
2021/01/01 07:57:39;;;;;;;7.47;5.00;;;3.10;99.90;;;;;;5069338;28;20474;-73
2021/01/01 08:00:08;;;;;;;6.63;4.70;;;3.10;99.90;;;;;;5069768;28;20435;-72
2021/01/01 08:02:35;;;;;;;7.67;6.03;;;3.00;99.90;;;;;;5069316;28;20428;-74
2021/01/01 08:05:04;;;;;;;5.90;5.30;;;3.10;99.90;;;;;;5069360;28;20439;-74
2021/01/01 08:07:31;;;;;;;6.63;5.40;;;3.10;99.90;;;;;;5069202;28;20508;-74
2021/01/01 08:09:57;;;;;;;5.63;4.43;;;3.00;99.90;;;;;;5069657;28;20434;-74
2021/01/01 08:12:24;;;;;;;7.50;5.60;;;3.10;99.90;;;;;;5069363;28;20435;-74
2021/01/01 08:14:53;;;;;;;8.17;6.37;;;3.20;99.90;;;;;;5069004;28;20435;-74
2021/01/01 08:17:20;;;;;;;8.37;5.97;;;3.20;99.90;;;;;;5069223;28;20546;-74
2021/01/01 08:19:47;;;;;;;6.43;4.37;;;3.30;99.90;;;;;;5069311;28;20821;-74
2021/01/01 08:22:20;;;;;;;6.77;5.03;;;3.30;99.90;;;;;;5069406;28;20964;-74
2021/01/01 08:24:53;;;;;;;7.03;5.10;;;3.30;99.90;;;;;;5069460;28;20424;-74
2021/01/01 08:27:21;;;;;;;6.50;5.03;;;3.40;99.90;;;;;;5069442;28;20912;-74
2021/01/01 08:29:49;;;;;;;7.00;5.40;;;3.40;99.90;;;;;;5069294;28;20427;-74
2021/01/01 08:32:17;;;;;;;6.27;5.03;;;3.50;99.90;;;;;;5069308;28;20446;-74
2021/01/01 08:34:48;;;;;;;5.93;4.50;;;3.60;99.90;;;;;;5069208;28;20434;-74
2021/01/01 08:37:22;;;;;;;4.17;3.67;;;3.60;99.90;;;;;;5071665;28;20546;-74
2021/01/01 08:40:01;;;;;;;9.90;6.50;;;3.60;99.90;;;;;;5069674;28;20438;-74
2021/01/01 08:42:33;;;;;;;10.60;5.70;;;3.70;99.90;;;;;;5069120;28;20510;-75
2021/01/01 08:45:00;;;;;;;5.53;4.70;;;3.70;99.90;;;;;;5069286;28;20850;-74
2021/01/01 08:47:41;;;;;;;6.10;4.50;;;3.70;99.90;;;;;;5068714;28;20850;-74
2021/01/01 08:50:21;;;;;;;6.10;4.27;;;3.90;99.90;;;;;;5069367;28;20439;-75
2021/01/01 08:52:50;;;;;;;5.37;4.20;;;3.90;99.90;;;;;;5069368;28;20434;-74
2021/01/01 08:55:17;;;;;;;4.83;4.20;;;3.90;99.90;;;;;;5069152;28;20467;-74
2021/01/01 08:57:44;;;;;;;6.07;4.90;;;3.90;99.90;;;;;;5068031;28;20803;-74
2021/01/01 09:00:11;;;;;;;5.97;5.07;;;4.00;99.90;;;;;;5069091;28;20439;-74
2021/01/01 09:02:39;;;;;;;5.70;4.97;;;4.10;99.90;;;;;;5069182;28;20718;-74
2021/01/01 09:05:10;;;;;;;9.53;5.63;;;4.20;99.90;;;;;;5069235;28;20913;-73
2021/01/01 09:07:37;;;;;;;9.93;6.63;;;4.30;99.90;;;;;;5070124;28;20446;-74
2021/01/01 09:10:19;;;;;;;6.30;5.03;;;4.40;99.90;;;;;;5072856;28;20930;-74
2021/01/01 09:12:46;;;;;;;6.77;5.00;;;4.50;99.90;;;;;;5072680;28;20427;-74
2021/01/01 09:15:26;;;;;;;5.40;4.30;;;4.60;99.90;;;;;;5073262;28;20745;-74
2021/01/01 09:18:04;;;;;;;5.60;4.97;;;4.60;99.90;;;;;;5072986;28;20518;-74
2021/01/01 09:20:30;;;;;;;5.67;5.07;;;4.70;99.90;;;;;;5073189;28;20435;-74
2021/01/01 09:23:00;;;;;;;5.20;4.20;;;4.90;99.90;;;;;;5072874;28;20437;-74
2021/01/01 09:25:28;;;;;;;5.97;4.87;;;4.90;99.90;;;;;;5073157;28;20501;-74
2021/01/01 09:27:55;;;;;;;5.30;4.27;;;4.90;99.90;;;;;;5072136;28;20462;-74
2021/01/01 09:30:24;;;;;;;5.50;4.30;;;4.90;99.90;;;;;;5073193;28;20446;-74
2021/01/01 09:32:53;;;;;;;5.87;4.90;;;5.00;99.90;;;;;;5072639;28;20522;-74
2021/01/01 09:35:21;;;;;;;5.50;4.40;;;5.00;99.90;;;;;;5072232;28;20478;-74
2021/01/01 09:37:49;;;;;;;5.53;4.47;;;4.90;99.90;;;;;;5072022;28;20459;-74
2021/01/01 09:40:17;;;;;;;5.83;4.43;;;5.00;99.90;;;;;;5072108;28;20919;-74
2021/01/01 09:42:43;;;;;;;5.60;4.80;;;5.00;99.90;;;;;;5073216;28;20477;-75
2021/01/01 09:45:11;;;;;;;4.90;4.20;;;5.10;99.90;;;;;;5073084;28;20439;-74
2021/01/01 09:47:38;;;;;;;5.83;4.13;;;5.10;99.90;;;;;;5072827;28;20463;-74
2021/01/01 09:50:06;;;;;;;5.87;5.07;;;5.10;99.90;;;;;;5072672;28;20436;-74
2021/01/01 09:52:34;;;;;;;5.63;4.50;;;5.30;99.90;;;;;;5072573;28;20454;-74
2021/01/01 09:55:00;;;;;;;5.70;4.40;;;5.50;99.90;;;;;;5072508;28;20435;-74
2021/01/01 09:57:27;;;;;;;5.07;4.20;;;5.50;99.90;;;;;;5071719;28;20451;-74
2021/01/01 09:59:54;;;;;;;5.00;3.83;;;5.60;99.90;;;;;;5053849;28;20774;-74
2021/01/01 10:02:21;;;;;;;5.27;4.50;;;5.70;99.90;;;;;;5071710;28;20438;-73
2021/01/01 10:04:47;;;;;;;6.07;4.77;;;5.70;99.90;;;;;;5071780;28;20488;-73
2021/01/01 10:07:15;;;;;;;4.27;3.37;;;5.80;99.90;;;;;;5071654;28;20447;-73
2021/01/01 10:09:43;;;;;;;6.50;5.67;;;5.90;99.90;;;;;;5072093;28;20431;-73
2021/01/01 10:12:13;;;;;;;4.93;4.03;;;6.00;99.90;;;;;;5072353;28;20431;-73
2021/01/01 10:14:39;;;;;;;5.30;4.80;;;5.90;99.90;;;;;;5072397;28;20677;-74
2021/01/01 10:17:06;;;;;;;4.20;3.40;;;5.90;99.90;;;;;;5071687;28;20483;-73
2021/01/01 10:19:33;;;;;;;5.60;5.07;;;5.80;99.90;;;;;;5071353;28;20457;-73
2021/01/01 10:21:59;;;;;;;5.60;4.73;;;5.80;99.90;;;;;;5071269;28;20926;-73
2021/01/01 10:24:26;;;;;;;5.30;4.47;;;5.90;99.90;;;;;;5071143;28;20435;-73
2021/01/01 10:26:54;;;;;;;4.93;4.10;;;6.00;99.90;;;;;;5071014;28;20829;-75
2021/01/01 10:29:20;;;;;;;7.70;5.60;;;6.00;99.90;;;;;;5071556;28;20508;-73
2021/01/01 10:31:47;;;;;;;8.50;6.47;;;6.10;99.90;;;;;;5071200;28;20428;-73
2021/01/01 10:34:14;;;;;;;13.67;11.13;;;6.10;99.90;;;;;;5071182;28;20443;-73
2021/01/01 10:36:41;;;;;;;7.67;6.80;;;6.00;99.90;;;;;;5071420;28;20560;-73
2021/01/01 10:39:09;;;;;;;11.70;8.97;;;6.00;99.90;;;;;;5071481;28;20485;-73
2021/01/01 10:41:36;;;;;;;6.13;5.27;;;6.00;99.90;;;;;;5071578;28;20427;-73
2021/01/01 10:44:04;;;;;;;11.00;9.80;;;6.10;99.90;;;;;;5071252;28;20435;-73
2021/01/01 10:46:31;;;;;;;7.70;6.93;;;6.00;99.90;;;;;;5074008;28;20551;-73
2021/01/01 10:48:59;;;;;;;6.13;4.90;;;5.90;99.90;;;;;;5089349;28;20468;-73
2021/01/01 10:51:26;;;;;;;5.73;5.13;;;5.80;99.90;;;;;;5091370;28;20982;-74
2021/01/01 10:53:53;;;;;;;7.17;6.23;;;5.80;99.90;;;;;;5091137;28;21029;-74
2021/01/01 10:56:23;;;;;;;6.70;5.93;;;5.80;99.90;;;;;;5090610;28;20467;-74
2021/01/01 10:58:50;;;;;;;7.00;5.70;;;5.90;99.90;;;;;;5090966;28;20438;-74
2021/01/01 11:01:22;;;;;;;6.53;5.13;;;5.90;99.90;;;;;;5090544;28;21021;-74
2021/01/01 11:03:49;;;;;;;9.93;8.90;;;5.90;99.90;;;;;;5090494;28;20496;-74
2021/01/01 11:06:16;;;;;;;7.23;6.07;;;5.80;99.90;;;;;;5090404;28;20442;-74
2021/01/01 11:08:43;;;;;;;6.90;6.20;;;5.80;99.90;;;;;;5091095;28;20441;-74
2021/01/01 11:11:11;;;;;;;5.80;4.93;;;5.80;99.90;;;;;;5090212;28;20921;-73
2021/01/01 11:13:41;;;;;;;6.33;5.23;;;5.90;99.90;;;;;;5089382;28;20537;-74
2021/01/01 12:22:27;;;;;;;8.73;7.83;;;5.60;99.90;;;;;;5041812;28;20778;-74
2021/01/01 12:24:55;;;;;;;6.57;5.00;;;5.60;99.90;;;;;;5087034;28;20446;-73
2021/01/01 12:27:25;;;;;;;7.60;5.63;;;5.60;99.90;;;;;;5086533;28;20454;-73
2021/01/01 12:29:52;;;;;;;7.47;5.87;;;5.60;99.90;;;;;;5089466;28;20435;-74
2021/01/01 12:32:20;;;;;;;8.73;7.17;;;5.60;99.90;;;;;;5083227;28;20443;-73
2021/01/01 12:34:47;;;;;;;7.33;5.73;;;5.60;99.90;;;;;;5077676;28;20534;-73
2021/01/01 12:37:14;;;;;;;7.90;6.07;;;5.60;99.90;;;;;;5081816;28;20551;-72
2021/01/01 12:39:41;;;;;;;7.13;6.07;;;5.60;99.90;;;;;;5074947;28;20533;-73
2021/01/01 12:42:09;;;;;;;8.03;6.57;;;5.60;99.90;;;;;;5079381;28;20451;-74
2021/01/01 12:44:35;;;;;;;7.27;5.50;;;5.70;99.90;;;;;;5082938;28;20450;-73
2021/01/01 12:47:03;;;;;;;8.20;5.57;;;5.70;99.90;;;;;;5080516;28;20469;-73
2021/01/01 12:49:30;;;;;;;9.30;6.30;;;5.80;99.90;;;;;;5084640;28;20430;-73
2021/01/01 12:51:57;;;;;;;7.87;6.50;;;5.80;99.90;;;;;;5077026;28;20439;-74
2021/01/01 12:54:24;;;;;;;9.10;6.87;;;5.90;99.90;;;;;;5082518;28;21044;-73
2021/01/01 12:56:50;;;;;;;9.20;5.60;;;5.90;99.90;;;;;;5085662;28;21000;-73
2021/01/01 12:59:18;;;;;;;6.03;4.83;;;5.80;99.90;;;;;;5083576;28;20466;-73
2021/01/01 13:01:44;;;;;;;6.40;5.47;;;5.80;99.90;;;;;;5079670;28;20508;-73
2021/01/01 13:04:11;;;;;;;8.20;5.40;;;5.70;99.90;;;;;;5076951;28;20853;-73
2021/01/01 13:06:38;;;;;;;6.40;5.40;;;5.70;99.90;;;;;;5087067;28;20571;-74
2021/01/01 13:09:05;;;;;;;8.10;7.30;;;5.60;99.90;;;;;;5072358;28;20439;-73
2021/01/01 13:11:32;;;;;;;8.13;5.50;;;5.50;99.90;;;;;;5072552;28;20431;-74
2021/01/01 13:13:59;;;;;;;5.60;4.43;;;5.50;99.90;;;;;;5072303;28;20443;-73
2021/01/01 13:16:27;;;;;;;8.30;5.53;;;5.40;99.90;;;;;;5072059;28;20479;-73
2021/01/01 13:18:55;;;;;;;7.57;5.10;;;5.30;99.90;;;;;;5072562;28;20439;-73
2021/01/01 13:21:26;;;;;;;6.40;4.40;;;5.30;99.90;;;;;;5072547;28;20434;-73
2021/01/01 13:23:52;;;;;;;7.03;5.00;;;5.10;99.90;;;;;;5072443;28;20955;-73
2021/01/01 13:26:20;;;;;;;5.93;4.53;;;5.10;99.90;;;;;;5072084;28;21130;-73
2021/01/01 13:28:47;;;;;;;6.87;5.57;;;5.10;99.90;;;;;;5071847;28;20435;-73
2021/01/01 13:31:14;;;;;;;6.60;5.80;;;5.10;99.90;;;;;;5072057;28;20518;-74
2021/01/01 13:33:42;;;;;;;7.07;5.07;;;5.10;99.90;;;;;;5071905;28;20808;-73
2021/01/01 13:36:15;;;;;;;7.13;5.93;;;5.20;99.90;;;;;;5071830;28;20479;-74
2021/01/01 13:38:42;;;;;;;9.03;5.80;;;5.30;99.90;;;;;;5072370;28;20454;-73
2021/01/01 13:41:10;;;;;;;6.70;5.20;;;5.40;99.90;;;;;;5072159;28;20450;-74
2021/01/01 13:43:40;;;;;;;6.47;5.30;;;5.50;99.90;;;;;;5072597;28;20535;-73
2021/01/01 13:46:07;;;;;;;5.63;4.17;;;5.60;99.90;;;;;;5072139;28;20443;-74
2021/01/01 13:48:34;;;;;;;8.93;6.73;;;5.60;99.90;;;;;;5072249;28;20522;-74
2021/01/01 13:51:01;;;;;;;11.10;8.30;;;5.50;99.90;;;;;;5073294;28;20849;-73
2021/01/01 13:53:28;;;;;;;10.50;8.23;;;5.40;99.90;;;;;;5084287;28;20454;-74
2021/01/01 13:55:54;;;;;;;11.10;8.80;;;5.30;99.90;;;;;;5091491;28;20821;-74
2021/01/01 13:58:21;;;;;;;12.10;9.03;;;5.30;99.90;;;;;;5087139;28;20984;-73